Time;durP1;ratioP1;P1;durP2;ratioP2;P2;SDS_P1;SDS_P2;PMS_P1;PMS_P2;Temp;Humidity;BMP_temperature;BMP_pressure;BME280_temperature;BME280_humidity;BME280_pressure;Samples;Min_cycle;Max_cycle;Signal;HPM_P1;HPM_P2
2022/03/17 00:02:23;;;;;;;24.98;13.68;;;;;;;10.38;74.77;101825.53;5071641;28;20025;-71
2022/03/17 00:04:49;;;;;;;24.73;13.48;;;;;;;10.40;75.05;101820.84;5071471;28;20054;-71
2022/03/17 00:07:14;;;;;;;23.48;12.55;;;;;;;10.41;74.70;101821.69;5071447;28;20481;-71
2022/03/17 00:09:40;;;;;;;24.30;12.63;;;;;;;10.38;75.15;101811.38;5071399;28;20029;-71
2022/03/17 00:12:08;;;;;;;22.92;11.90;;;;;;;10.40;74.69;101820.00;5070898;28;20363;-71
2022/03/17 00:14:33;;;;;;;25.38;13.55;;;;;;;10.38;75.06;101833.53;5070841;28;20442;-70
2022/03/17 00:16:58;;;;;;;23.92;13.18;;;;;;;10.38;75.06;101833.53;5071278;28;20028;-71
2022/03/17 00:19:25;;;;;;;26.52;13.48;;;;;;;10.36;75.40;101829.38;5071131;28;20024;-71
2022/03/17 00:21:51;;;;;;;23.88;12.57;;;;;;;10.35;75.32;101827.69;5071348;28;20029;-71
2022/03/17 00:24:17;;;;;;;25.02;14.30;;;;;;;10.34;75.22;101826.03;5071127;28;20056;-71
2022/03/17 00:26:42;;;;;;;23.63;12.07;;;;;;;10.35;75.08;101825.00;5070850;28;20036;-71
2022/03/17 00:29:08;;;;;;;23.92;12.25;;;;;;;10.36;75.43;101830.19;5070869;28;20028;-71
2022/03/17 00:31:35;;;;;;;21.70;12.38;;;;;;;10.34;75.50;101828.69;5070292;28;20039;-70
2022/03/17 00:34:00;;;;;;;24.85;12.85;;;;;;;10.30;75.62;101823.72;5069993;28;20036;-71
2022/03/17 00:36:25;;;;;;;24.13;13.05;;;;;;;10.23;75.51;101813.88;5070987;28;20025;-71
2022/03/17 00:38:51;;;;;;;21.23;11.27;;;;;;;10.29;75.67;101827.34;5071392;28;20476;-71
2022/03/17 00:41:16;;;;;;;25.58;13.10;;;;;;;10.29;75.60;101818.53;5070745;28;20044;-71
2022/03/17 00:43:41;;;;;;;23.45;11.32;;;;;;;10.27;75.63;101817.84;5069384;28;20043;-71
2022/03/17 00:46:07;;;;;;;24.77;13.45;;;;;;;10.26;75.54;101817.00;5070504;28;20033;-71
2022/03/17 00:48:32;;;;;;;25.75;12.23;;;;;;;10.24;76.01;101816.38;5070698;28;20120;-71
2022/03/17 00:50:57;;;;;;;24.25;12.32;;;;;;;10.22;75.91;101825.53;5070543;28;20033;-71
2022/03/17 00:53:23;;;;;;;24.02;12.93;;;;;;;10.19;75.95;101824.06;5070231;28;20048;-71
2022/03/17 00:55:48;;;;;;;26.23;13.05;;;;;;;10.18;76.25;101830.38;5070712;28;20048;-71
2022/03/17 00:58:14;;;;;;;23.63;12.75;;;;;;;10.16;76.18;101826.19;5070211;28;20079;-71
2022/03/17 01:00:39;;;;;;;24.20;14.30;;;;;;;10.16;76.41;101834.19;5070351;28;20029;-71
2022/03/17 01:03:05;;;;;;;23.40;13.57;;;;;;;10.15;76.51;101829.88;5070333;28;20028;-71
2022/03/17 01:05:31;;;;;;;24.15;12.77;;;;;;;10.12;76.54;101832.88;5068959;28;20111;-71
2022/03/17 01:07:56;;;;;;;24.05;13.50;;;;;;;10.13;76.58;101835.38;5068821;28;20028;-70
2022/03/17 01:10:22;;;;;;;23.38;12.55;;;;;;;10.09;77.01;101828.72;5070055;28;20103;-71
2022/03/17 01:12:48;;;;;;;25.27;12.70;;;;;;;10.09;77.08;101828.72;5069987;28;20153;-71
2022/03/17 01:15:19;;;;;;;25.00;13.07;;;;;;;10.09;77.17;101836.72;5069539;28;20028;-70
2022/03/17 01:17:44;;;;;;;24.15;11.35;;;;;;;10.12;77.12;101830.22;5070128;28;20024;-70
2022/03/17 01:20:11;;;;;;;25.42;14.02;;;;;;;10.14;77.11;101829.06;5069990;28;20117;-71
2022/03/17 01:22:37;;;;;;;23.77;13.13;;;;;;;10.21;77.28;101842.53;5070059;28;20115;-71
2022/03/17 01:25:04;;;;;;;22.92;13.13;;;;;;;10.20;77.30;101830.22;5069735;28;20174;-70
2022/03/17 01:27:29;;;;;;;24.60;11.80;;;;;;;10.24;77.34;101843.03;5068421;28;20403;-71
2022/03/17 01:29:55;;;;;;;23.05;11.90;;;;;;;10.25;77.25;101830.53;5069811;28;20060;-71
2022/03/17 01:32:21;;;;;;;24.10;12.30;;;;;;;10.27;77.44;101829.38;5069236;28;20099;-71
2022/03/17 01:34:47;;;;;;;25.60;13.18;;;;;;;10.26;77.27;101822.34;5069248;28;20099;-71
2022/03/17 01:37:13;;;;;;;22.83;12.10;;;;;;;10.30;77.33;101813.03;5068066;28;20042;-70
2022/03/17 01:39:38;;;;;;;27.70;13.30;;;;;;;10.31;77.31;101819.19;5069832;28;20062;-70
2022/03/17 01:42:07;;;;;;;25.75;15.25;;;;;;;10.31;77.05;101820.03;5069779;28;20028;-71
2022/03/17 01:44:33;;;;;;;24.33;12.20;;;;;;;10.29;77.10;101822.03;5069535;28;20322;-71
2022/03/17 01:49:43;;;;;;;24.20;13.10;;;;;;;10.36;77.66;101838.19;5069965;28;20054;-70
2022/03/17 01:52:08;;;;;;;25.23;12.40;;;;;;;10.37;77.83;101826.50;5069399;28;20123;-71
2022/03/17 01:54:35;;;;;;;24.05;13.27;;;;;;;10.38;77.62;101824.69;5069604;28;20123;-71
2022/03/17 01:57:02;;;;;;;23.23;11.75;;;;;;;10.37;78.00;101818.50;5068298;28;20048;-71
2022/03/17 01:59:28;;;;;;;23.67;12.38;;;;;;;10.40;77.72;101815.53;5069580;28;20036;-71
2022/03/17 02:01:54;;;;;;;22.80;11.25;;;;;;;10.42;78.04;101826.00;5068077;28;20033;-71
2022/03/17 02:04:19;;;;;;;22.25;11.90;;;;;;;10.38;78.30;101822.03;5069396;28;20131;-71
2022/03/17 02:06:45;;;;;;;25.73;12.73;;;;;;;10.42;78.41;101824.16;5069369;28;20127;-71
2022/03/17 02:09:11;;;;;;;23.45;12.65;;;;;;;10.43;78.27;101827.69;5069380;28;20046;-71
2022/03/17 02:14:22;;;;;;;23.08;11.73;;;;;;;10.41;78.34;101819.00;5069585;28;20395;-71
2022/03/17 02:16:52;;;;;;;26.95;13.10;;;;;;;10.40;78.77;101818.19;5068062;28;20472;-71
2022/03/17 02:19:18;;;;;;;27.77;14.80;;;;;;;10.40;78.91;101817.34;5067958;28;20476;-70
2022/03/17 02:21:48;;;;;;;25.20;13.35;;;;;;;10.41;79.10;101833.19;5069184;28;20023;-71
2022/03/17 02:26:59;;;;;;;27.13;13.80;;;;;;;10.35;79.61;101830.34;5074029;28;20110;-71
2022/03/17 02:29:25;;;;;;;23.88;12.27;;;;;;;10.37;79.61;101834.50;5072549;28;20032;-71
2022/03/17 02:31:51;;;;;;;28.30;14.52;;;;;;;10.38;79.60;101838.03;5072503;28;20580;-71
2022/03/17 02:34:17;;;;;;;22.55;11.60;;;;;;;10.37;79.98;101841.69;5072705;28;20033;-70
2022/03/17 02:36:50;;;;;;;27.38;14.13;;;;;;;10.36;80.48;101834.69;5072142;28;20137;-71
2022/03/17 02:39:17;;;;;;;26.13;12.88;;;;;;;10.40;80.83;101846.66;5072532;28;20106;-71
2022/03/17 02:41:42;;;;;;;26.48;13.50;;;;;;;10.41;80.98;101853.69;5072992;28;20024;-70
2022/03/17 02:44:08;;;;;;;24.73;12.85;;;;;;;10.43;81.31;101851.69;5072897;28;20032;-71
2022/03/17 02:46:34;;;;;;;25.10;13.40;;;;;;;10.42;81.52;101853.50;5072776;28;20067;-71
2022/03/17 02:48:59;;;;;;;26.20;13.15;;;;;;;10.40;81.32;101847.53;5072396;28;20430;-71
2022/03/17 02:51:24;;;;;;;26.33;14.45;;;;;;;10.43;81.88;101855.19;5072901;28;20032;-70
2022/03/17 02:53:50;;;;;;;23.40;13.93;;;;;;;10.45;81.89;101863.00;5072385;28;20435;-71
2022/03/17 02:56:15;;;;;;;25.75;14.20;;;;;;;10.45;82.21;101860.31;5072796;28;20064;-71
2022/03/17 02:58:41;;;;;;;29.77;14.82;;;;;;;10.42;82.13;101856.16;5072722;28;20376;-71
2022/03/17 03:01:06;;;;;;;29.88;14.00;;;;;;;10.45;82.72;101871.00;5071330;28;20031;-71
2022/03/17 03:03:31;;;;;;;25.63;14.70;;;;;;;10.45;83.16;101869.19;5072613;28;20027;-70
2022/03/17 03:05:57;;;;;;;26.95;15.30;;;;;;;10.44;83.58;101872.84;5072556;28;20522;-71
2022/03/17 03:08:22;;;;;;;26.75;13.50;;;;;;;10.44;84.48;101877.34;5071218;28;20033;-71
2022/03/17 03:10:47;;;;;;;27.25;14.05;;;;;;;10.45;84.99;101884.31;5071156;28;20032;-71
2022/03/17 03:13:13;;;;;;;27.75;14.45;;;;;;;10.43;85.93;101886.34;5071734;28;20035;-71
2022/03/17 03:15:39;;;;;;;26.13;16.55;;;;;;;10.38;87.04;101889.53;5072340;28;20483;-71
2022/03/17 03:18:05;;;;;;;25.75;13.35;;;;;;;10.36;87.76;101899.53;5072421;28;20033;-70
2022/03/17 03:20:30;;;;;;;28.55;14.50;;;;;;;10.36;89.21;101906.69;5072366;28;20107;-71
2022/03/17 03:22:57;;;;;;;31.08;16.17;;;;;;;10.34;89.78;101909.53;5071120;28;20506;-70
2022/03/17 03:25:23;;;;;;;28.17;15.05;;;;;;;10.33;91.24;101923.03;5072286;28;20503;-70
2022/03/17 03:27:48;;;;;;;29.23;13.60;;;;;;;10.29;91.95;101928.69;5072304;28;20059;-70
2022/03/17 03:30:14;;;;;;;22.65;12.80;;;;;;;10.25;92.48;101937.19;5072111;28;20109;-70
2022/03/17 03:32:42;;;;;;;22.73;13.43;;;;;;;10.21;93.11;101943.81;5072220;28;20143;-70
2022/03/17 03:37:53;;;;;;;22.05;10.80;;;;;;;10.00;93.31;101949.66;5071643;28;20035;-71
2022/03/17 03:40:18;;;;;;;17.38;9.27;;;;;;;9.97;94.34;101955.31;5070081;28;20408;-70
2022/03/17 03:42:44;;;;;;;17.65;9.15;;;;;;;9.95;94.80;101971.47;5071870;28;20040;-71
2022/03/17 03:45:09;;;;;;;21.23;9.27;;;;;;;9.90;95.41;101976.44;5071649;28;20111;-70
2022/03/17 03:47:35;;;;;;;16.25;8.60;;;;;;;9.84;95.42;101982.44;5071420;28;20552;-70
2022/03/17 03:50:01;;;;;;;15.88;8.75;;;;;;;9.77;95.95;101981.44;5071926;28;20039;-70
2022/03/17 03:52:26;;;;;;;14.35;7.22;;;;;;;9.68;95.51;101985.91;5071766;28;20400;-71
2022/03/17 03:54:52;;;;;;;12.27;6.70;;;;;;;9.63;95.31;102004.22;5071325;28;20076;-70
2022/03/17 03:57:17;;;;;;;16.38;7.70;;;;;;;9.57;95.39;102002.22;5071434;28;20158;-70
2022/03/17 03:59:42;;;;;;;15.13;7.40;;;;;;;9.50;94.94;102012.66;5071642;28;20495;-70
2022/03/17 04:02:09;;;;;;;16.13;7.93;;;;;;;9.50;94.96;102027.81;5070432;28;20119;-70
2022/03/17 04:04:36;;;;;;;16.48;8.93;;;;;;;9.46;94.82;102031.78;5070965;28;20043;-70
2022/03/17 04:07:08;;;;;;;22.33;12.32;;;;;;;9.41;94.44;102033.09;5071605;28;20149;-70
2022/03/17 04:09:35;;;;;;;;;;;;;;;9.37;92.22;102050.38;5071600;28;20035;-70
2022/03/17 04:12:02;;;;;;;24.20;12.68;;;;;;;9.28;94.38;102053.19;5069943;28;19912;-70
2022/03/17 04:14:27;;;;;;;23.00;12.15;;;;;;;9.24;94.10;102062.47;5071278;28;20142;-70
2022/03/17 04:16:54;;;;;;;25.92;14.00;;;;;;;9.12;95.21;102062.72;5071219;28;20119;-70
2022/03/17 04:19:19;;;;;;;23.33;11.70;;;;;;;9.06;95.33;102071.31;5071624;28;20025;-71
2022/03/17 04:21:46;;;;;;;23.40;12.43;;;;;;;9.04;95.49;102080.47;5071772;28;20555;-70
2022/03/17 04:24:13;;;;;;;18.73;9.02;;;;;;;8.97;94.50;102089.06;5071082;28;20025;-70
2022/03/17 04:26:39;;;;;;;17.60;8.85;;;;;;;8.88;94.15;102100.66;5070779;28;20874;-70
2022/03/17 04:29:04;;;;;;;20.25;9.40;;;;;;;8.78;94.13;102113.22;5071145;28;20024;-70
2022/03/17 04:31:30;;;;;;;18.05;9.10;;;;;;;8.68;94.71;102109.78;5069669;28;20032;-70
2022/03/17 04:33:56;;;;;;;17.38;8.80;;;;;;;8.62;94.40;102129.00;5070906;28;20036;-70
2022/03/17 04:36:22;;;;;;;21.08;9.90;;;;;;;8.60;95.27;102133.66;5070579;28;20021;-70
2022/03/17 04:38:48;;;;;;;21.65;10.95;;;;;;;8.58;95.51;102148.94;5070670;28;20111;-70
2022/03/17 04:41:14;;;;;;;20.13;11.50;;;;;;;8.55;96.03;102147.41;5070262;28;20040;-70
2022/03/17 04:43:40;;;;;;;21.83;11.38;;;;;;;8.50;96.19;102153.16;5070258;28;20032;-70
2022/03/17 04:46:09;;;;;;;21.75;10.75;;;;;;;8.50;96.48;102169.13;5069910;28;20036;-70
2022/03/17 04:48:36;;;;;;;23.88;12.27;;;;;;;8.39;96.85;102166.69;5070614;28;20064;-70
2022/03/17 04:51:02;;;;;;;21.80;10.38;;;;;;;8.39;97.64;102179.13;5070716;28;20029;-70
2022/03/17 04:53:27;;;;;;;20.45;9.75;;;;;;;8.35;97.87;102182.06;5070398;28;20049;-70
2022/03/17 04:55:54;;;;;;;23.88;11.18;;;;;;;8.31;98.14;102186.00;5070704;28;20387;-70
2022/03/17 04:58:19;;;;;;;22.33;10.90;;;;;;;8.28;98.82;102201.44;5069153;28;20472;-70
2022/03/17 05:00:46;;;;;;;22.15;11.60;;;;;;;8.27;98.18;102205.88;5069874;28;20020;-70
2022/03/17 05:03:11;;;;;;;23.63;11.35;;;;;;;8.24;97.55;102210.66;5069854;28;20035;-70
2022/03/17 05:05:37;;;;;;;22.77;11.43;;;;;;;8.19;97.45;102213.75;5070234;28;20099;-70
2022/03/17 05:08:02;;;;;;;26.00;11.65;;;;;;;8.12;96.87;102212.66;5070306;28;20423;-70
2022/03/17 05:10:31;;;;;;;22.17;10.82;;;;;;;8.13;96.20;102230.31;5070749;28;20082;-70
2022/03/17 05:12:56;;;;;;;20.17;9.70;;;;;;;8.13;95.89;102240.94;5070211;28;20040;-70
2022/03/17 05:15:22;;;;;;;20.48;9.68;;;;;;;8.07;95.05;102244.19;5070098;28;20028;-70
2022/03/17 05:17:48;;;;;;;20.80;8.77;;;;;;;7.96;94.50;102239.84;5069725;28;20089;-70
2022/03/17 05:20:14;;;;;;;16.25;6.57;;;;;;;7.99;93.47;102266.16;5069743;28;20027;-70
2022/03/17 05:22:40;;;;;;;12.57;6.95;;;;;;;7.96;92.84;102284.19;5070097;28;20453;-70
2022/03/17 05:25:08;;;;;;;16.23;5.80;;;;;;;7.89;92.38;102291.91;5069718;28;20039;-71
2022/03/17 05:27:44;;;;;;;14.80;5.97;;;;;;;7.85;91.93;102301.97;5070042;28;20032;-70
2022/03/17 05:30:13;;;;;;;17.77;5.63;;;;;;;7.86;91.80;102313.47;5069914;28;20030;-70
2022/03/17 05:32:40;;;;;;;10.75;5.20;;;;;;;7.80;90.99;102316.66;5069615;28;20067;-70
2022/03/17 05:35:07;;;;;;;12.15;4.18;;;;;;;7.73;91.18;102319.06;5069849;28;20020;-70
2022/03/17 05:37:32;;;;;;;12.60;7.03;;;;;;;7.71;90.71;102331.63;5068932;28;20025;-70
2022/03/17 05:39:57;;;;;;;10.40;4.47;;;;;;;7.69;89.97;102329.09;5069731;28;20029;-70
2022/03/17 05:42:23;;;;;;;9.75;4.00;;;;;;;7.67;89.21;102336.38;5068876;28;20578;-70
2022/03/17 05:44:48;;;;;;;14.20;5.22;;;;;;;7.65;89.61;102340.16;5068856;28;20048;-70
2022/03/17 05:47:13;;;;;;;11.35;5.63;;;;;;;7.62;88.68;102354.56;5069657;28;20356;-70
2022/03/17 05:49:39;;;;;;;7.35;4.55;;;;;;;7.61;87.93;102357.34;5069655;28;20489;-70
2022/03/17 05:52:05;;;;;;;12.25;3.83;;;;;;;7.55;88.18;102360.56;5069207;28;20046;-70
2022/03/17 05:54:30;;;;;;;9.90;3.55;;;;;;;7.61;87.84;102375.94;5068847;28;20052;-70
2022/03/17 05:56:56;;;;;;;10.45;3.85;;;;;;;7.51;87.64;102367.13;5067511;28;20032;-70
2022/03/17 05:59:21;;;;;;;7.10;3.03;;;;;;;7.56;86.67;102392.28;5069219;28;20073;-70
2022/03/17 06:01:46;;;;;;;10.25;4.00;;;;;;;7.57;87.32;102387.81;5069587;28;20115;-70
2022/03/17 06:04:12;;;;;;;8.75;2.90;;;;;;;7.48;86.65;102378.88;5069504;28;20035;-70
2022/03/17 06:06:37;;;;;;;11.70;3.30;;;;;;;7.54;86.68;102399.53;5069451;28;20032;-70
2022/03/17 06:09:02;;;;;;;13.60;4.90;;;;;;;7.53;86.66;102410.31;5069449;28;20037;-70
2022/03/17 06:11:31;;;;;;;8.45;3.70;;;;;;;7.50;87.07;102414.09;5068503;28;20028;-70
2022/03/17 06:13:56;;;;;;;12.88;3.38;;;;;;;7.51;87.01;102425.53;5069381;28;20036;-70
2022/03/17 06:16:23;;;;;;;8.55;2.55;;;;;;;7.44;87.22;102423.44;5069351;28;20430;-70
2022/03/17 06:18:49;;;;;;;6.07;2.28;;;;;;;7.45;87.65;102432.22;5067993;28;20035;-70
2022/03/17 06:21:14;;;;;;;5.22;2.20;;;;;;;7.39;87.14;102436.28;5069022;28;20049;-70
2022/03/17 06:23:39;;;;;;;6.78;2.00;;;;;;;7.42;86.78;102449.28;5069167;28;20384;-70
2022/03/17 06:26:05;;;;;;;15.82;3.83;;;;;;;7.38;87.24;102447.03;5068655;28;20035;-70
2022/03/17 06:28:30;;;;;;;7.80;2.58;;;;;;;7.37;87.28;102458.63;5069013;28;20029;-70
2022/03/17 06:30:56;;;;;;;8.15;2.35;;;;;;;7.39;87.29;102459.34;5069043;28;20364;-70
2022/03/17 06:33:22;;;;;;;5.30;2.30;;;;;;;7.38;86.54;102461.13;5068129;28;20126;-70
2022/03/17 06:35:47;;;;;;;10.50;2.38;;;;;;;7.39;86.67;102476.09;5067407;28;20029;-70
2022/03/17 06:38:13;;;;;;;7.82;3.40;;;;;;;7.46;86.35;102479.03;5067181;28;20111;-70
2022/03/17 06:40:38;;;;;;;6.07;3.00;;;;;;;7.45;86.80;102494.13;5069221;28;20394;-70
2022/03/17 06:43:04;;;;;;;10.35;2.03;;;;;;;7.40;86.08;102488.38;5068541;28;20028;-70
2022/03/17 06:45:30;;;;;;;4.35;1.83;;;;;;;7.37;86.58;102498.44;5049842;28;20062;-70
2022/03/17 06:47:55;;;;;;;8.48;1.95;;;;;;;7.43;87.26;102505.84;5068445;28;20064;-70
2022/03/17 06:50:22;;;;;;;3.45;2.05;;;;;;;7.37;87.06;102509.88;5068881;28;20477;-70
2022/03/17 06:52:48;;;;;;;7.68;2.70;;;;;;;7.39;86.81;102523.03;5067492;28;20024;-70
2022/03/17 06:55:14;;;;;;;8.20;2.50;;;;;;;7.43;86.34;102513.81;5067324;28;20052;-70
2022/03/17 06:57:40;;;;;;;8.23;2.40;;;;;;;7.45;85.38;102525.16;5068906;28;20491;-70
2022/03/17 07:00:09;;;;;;;7.65;2.25;;;;;;;7.53;85.96;102524.47;5068969;28;20032;-70
2022/03/17 07:02:34;;;;;;;5.70;2.28;;;;;;;7.55;85.21;102534.00;5068880;28;20052;-70
2022/03/17 07:05:00;;;;;;;6.95;2.05;;;;;;;7.59;84.67;102535.38;5068895;28;20951;-70
2022/03/17 07:07:27;;;;;;;5.70;2.03;;;;;;;7.63;85.27;102541.28;5068797;28;20058;-70
2022/03/17 07:09:52;;;;;;;4.63;1.77;;;;;;;7.68;84.92;102549.69;5071150;28;20032;-70
2022/03/17 07:12:18;;;;;;;10.27;1.73;;;;;;;7.60;84.79;102531.75;5072381;28;20029;-70
2022/03/17 07:14:43;;;;;;;6.82;2.00;;;;;;;7.72;84.49;102564.34;5072217;28;20032;-70
2022/03/17 07:17:08;;;;;;;5.43;2.08;;;;;;;7.74;84.71;102573.03;5054152;28;20040;-70
2022/03/17 07:19:34;;;;;;;5.72;2.88;;;;;;;7.68;84.47;102584.19;5072160;28;20064;-70
2022/03/17 07:22:00;;;;;;;8.77;2.30;;;;;;;7.61;84.78;102583.06;5071903;28;20033;-71
2022/03/17 07:24:25;;;;;;;7.75;2.00;;;;;;;7.56;84.79;102583.44;5071998;28;20020;-70
2022/03/17 07:26:51;;;;;;;5.18;2.15;;;;;;;7.53;85.74;102604.13;5071980;28;20031;-70
2022/03/17 07:29:16;;;;;;;4.28;1.52;;;;;;;7.44;87.17;102608.41;5071943;28;20028;-70
2022/03/17 07:31:43;;;;;;;5.03;1.98;;;;;;;7.44;87.33;102608.41;5071960;28;20398;-70
2022/03/17 07:34:08;;;;;;;9.95;2.70;;;;;;;7.46;87.43;102617.06;5071956;28;20547;-70
2022/03/17 07:36:34;;;;;;;9.93;2.05;;;;;;;7.47;87.25;102616.13;5071840;28;20115;-70
2022/03/17 07:39:01;;;;;;;13.10;2.42;;;;;;;7.52;86.65;102624.53;5071580;28;20021;-70
2022/03/17 07:41:27;;;;;;;4.90;1.65;;;;;;;7.55;86.55;102629.56;5071167;28;20054;-70
2022/03/17 07:43:52;;;;;;;7.80;1.92;;;;;;;7.66;85.91;102623.31;5071522;28;20118;-70
2022/03/17 07:46:18;;;;;;;9.68;1.70;;;;;;;7.73;84.88;102634.22;5070911;28;20051;-70
2022/03/17 07:48:44;;;;;;;6.28;1.40;;;;;;;7.75;85.04;102648.22;5071184;28;20033;-70
2022/03/17 07:51:10;;;;;;;6.50;1.42;;;;;;;7.76;84.27;102655.25;5071611;28;20037;-70
2022/03/17 07:53:35;;;;;;;3.92;1.38;;;;;;;7.76;84.50;102648.09;5070335;28;20407;-70
2022/03/17 07:56:01;;;;;;;7.85;2.03;;;;;;;7.76;83.60;102655.25;5070296;28;20028;-70
2022/03/17 07:58:27;;;;;;;8.68;1.80;;;;;;;7.80;84.09;102652.16;5071817;28;20051;-70
2022/03/17 08:00:55;;;;;;;6.18;1.50;;;;;;;7.84;84.09;102664.22;5071518;28;20036;-71
2022/03/17 08:03:21;;;;;;;3.65;1.50;;;;;;;7.89;84.35;102664.66;5071397;28;20455;-71
2022/03/17 08:05:47;;;;;;;4.45;1.55;;;;;;;7.87;83.40;102671.91;5071166;28;20640;-71
2022/03/17 08:08:17;;;;;;;8.32;2.45;;;;;;;7.83;83.13;102672.31;5071488;28;20512;-71
2022/03/17 08:10:42;;;;;;;6.85;2.72;;;;;;;7.82;82.77;102686.56;5071373;28;20039;-70
2022/03/17 08:13:09;;;;;;;6.05;2.20;;;;;;;7.80;83.29;102691.16;5071405;28;20032;-70
2022/03/17 08:15:36;;;;;;;13.60;2.67;;;;;;;7.81;83.24;102698.19;5071237;28;20056;-71
2022/03/17 08:18:06;;;;;;;6.53;2.05;;;;;;;7.82;83.44;102703.34;5071198;28;20134;-70
2022/03/17 08:20:32;;;;;;;4.68;1.55;;;;;;;7.82;82.92;102713.13;5069868;28;20032;-71
2022/03/17 08:22:58;;;;;;;10.73;1.85;;;;;;;7.78;83.16;102715.22;5071024;28;20025;-71
2022/03/17 08:25:23;;;;;;;11.55;2.17;;;;;;;7.74;82.85;102707.66;5070927;28;20033;-71
2022/03/17 08:27:52;;;;;;;9.85;3.08;;;;;;;7.75;83.09;102727.91;5070993;28;20428;-71
2022/03/17 08:30:17;;;;;;;8.10;1.90;;;;;;;7.71;81.54;102729.16;5069733;28;20036;-71
2022/03/17 08:32:42;;;;;;;13.00;2.25;;;;;;;7.80;81.43;102738.97;5070956;28;20044;-72
2022/03/17 08:35:10;;;;;;;10.95;1.85;;;;;;;7.86;80.82;102743.78;5070913;28;20498;-71
2022/03/17 08:37:43;;;;;;;8.13;2.53;;;;;;;7.91;79.77;102752.16;5069400;28;20058;-71
2022/03/17 08:40:10;;;;;;;4.65;1.73;;;;;;;7.92;79.04;102753.88;5070550;28;20528;-71
2022/03/17 08:42:35;;;;;;;8.43;2.03;;;;;;;7.94;79.00;102749.28;5070493;28;20024;-72
2022/03/17 08:45:01;;;;;;;15.10;2.63;;;;;;;8.05;77.87;102757.16;5070555;28;20083;-71
2022/03/17 08:50:10;;;;;;;7.05;1.63;;;;;;;8.15;76.40;102766.97;5070103;28;20127;-71
2022/03/17 08:52:35;;;;;;;10.35;1.33;;;;;;;8.13;76.60;102769.78;5070432;28;20115;-71
2022/03/17 08:55:02;;;;;;;8.57;1.55;;;;;;;8.18;75.67;102764.06;5070320;28;20506;-70
2022/03/17 08:57:28;;;;;;;13.15;1.52;;;;;;;8.33;73.92;102789.28;5069999;28;20127;-71
2022/03/17 08:59:53;;;;;;;6.97;1.70;;;;;;;8.39;74.21;102786.16;5070508;28;20048;-71
2022/03/17 09:02:18;;;;;;;9.32;2.08;;;;;;;8.44;71.97;102791.06;5069154;28;20036;-71
2022/03/17 09:04:44;;;;;;;4.70;1.98;;;;;;;8.46;71.61;102786.44;5070258;28;20075;-71
2022/03/17 09:07:11;;;;;;;9.55;1.33;;;;;;;8.54;71.18;102791.91;5070338;28;20104;-71
2022/03/17 09:09:38;;;;;;;5.38;1.02;;;;;;;8.59;71.26;102792.34;5070077;28;20032;-71
2022/03/17 09:12:05;;;;;;;7.30;2.50;;;;;;;8.65;71.14;102809.59;5068364;28;20016;-71
2022/03/17 09:14:44;;;;;;;7.68;1.38;;;;;;;8.64;71.73;102806.09;5069696;28;20526;-71
2022/03/17 09:17:09;;;;;;;7.32;1.90;;;;;;;8.58;70.71;102808.47;5070177;28;20023;-71
2022/03/17 09:19:35;;;;;;;10.02;2.60;;;;;;;8.50;70.79;102817.94;5070205;28;20036;-71
2022/03/17 09:22:00;;;;;;;7.00;1.35;;;;;;;8.51;70.81;102819.66;5065997;28;20035;-71
2022/03/17 09:24:30;;;;;;;5.78;1.85;;;;;;;8.52;70.24;102820.47;5065208;28;20028;-72
2022/03/17 09:26:55;;;;;;;10.27;3.47;;;;;;;8.51;71.08;102811.66;5065325;28;20036;-72
2022/03/17 09:29:21;;;;;;;12.18;2.72;;;;;;;8.55;70.92;102821.03;5065248;28;20533;-72
2022/03/17 09:31:46;;;;;;;3.83;1.38;;;;;;;8.57;71.18;102820.91;5064916;28;20029;-72
2022/03/17 09:34:12;;;;;;;9.75;1.58;;;;;;;8.62;71.70;102825.81;5063932;28;20391;-72
2022/03/17 09:36:39;;;;;;;7.15;1.38;;;;;;;8.66;69.93;102844.03;5067866;28;20032;-71
2022/03/17 09:41:48;;;;;;;9.75;3.13;;;;;;;8.60;71.57;102859.72;5069722;28;20143;-71
2022/03/17 09:44:14;;;;;;;6.22;1.38;;;;;;;8.65;69.77;102865.47;5069475;28;20544;-71
2022/03/17 09:46:42;;;;;;;9.75;2.10;;;;;;;8.64;70.50;102861.94;5069153;28;20101;-71
2022/03/17 09:49:07;;;;;;;8.80;3.40;;;;;;;8.69;68.95;102865.03;5068277;28;20101;-71
2022/03/17 09:51:34;;;;;;;8.95;1.88;;;;;;;8.65;68.32;102863.66;5070006;28;20040;-71
2022/03/17 09:54:00;;;;;;;11.00;1.67;;;;;;;8.65;68.90;102863.66;5069292;28;20420;-71
2022/03/17 09:56:27;;;;;;;10.82;2.15;;;;;;;8.71;68.88;102875.56;5069674;28;20029;-71
2022/03/17 09:58:58;;;;;;;7.00;1.88;;;;;;;8.80;67.83;102884.53;5069625;28;20036;-71
2022/03/17 10:01:27;;;;;;;4.43;1.60;;;;;;;8.86;67.30;102884.84;5069401;28;20035;-71
2022/03/17 10:04:00;;;;;;;3.63;1.20;;;;;;;8.86;67.65;102892.84;5069401;28;20115;-71
2022/03/17 10:06:28;;;;;;;8.30;1.73;;;;;;;8.82;67.14;102878.13;5069292;28;20652;-71
2022/03/17 10:08:55;;;;;;;6.57;1.50;;;;;;;8.92;68.95;102894.94;5069497;28;20025;-71
2022/03/17 10:11:28;;;;;;;3.30;1.92;;;;;;;8.91;67.41;102895.94;5069025;28;20036;-70
2022/03/17 10:13:56;;;;;;;7.45;2.00;;;;;;;8.98;67.32;102906.88;5069347;28;20117;-71
2022/03/17 10:16:23;;;;;;;6.43;1.38;;;;;;;9.07;66.83;102907.91;5069392;28;20077;-71
2022/03/17 10:18:59;;;;;;;6.72;2.42;;;;;;;9.12;67.11;102905.69;5069429;28;20426;-71
2022/03/17 10:21:26;;;;;;;7.05;1.65;;;;;;;9.14;66.02;102925.00;5069332;28;20032;-71
2022/03/17 10:24:03;;;;;;;4.03;1.60;;;;;;;9.11;66.11;102920.78;5069259;28;20024;-71
2022/03/17 10:26:47;;;;;;;6.30;1.55;;;;;;;9.09;65.15;102936.06;5068760;28;20542;-71
2022/03/17 10:29:41;;;;;;;5.78;1.40;;;;;;;9.05;64.97;102937.31;5069253;28;20013;-71
2022/03/17 10:32:09;;;;;;;4.18;1.33;;;;;;;9.09;66.86;102945.84;5059985;28;20107;-71
2022/03/17 10:34:47;;;;;;;8.35;2.28;;;;;;;9.19;66.61;102950.22;5069110;28;20042;-71
2022/03/17 10:37:15;;;;;;;6.32;1.67;;;;;;;9.19;66.11;102952.88;5069163;28;20108;-71
2022/03/17 10:39:45;;;;;;;5.57;1.70;;;;;;;9.14;65.53;102960.47;5069047;28;20525;-71
2022/03/17 10:42:10;;;;;;;4.65;1.35;;;;;;;9.13;66.51;102961.41;5069111;28;20039;-71
2022/03/17 10:44:39;;;;;;;6.57;1.85;;;;;;;9.25;67.09;102963.97;5071256;28;20969;-71
2022/03/17 10:47:05;;;;;;;4.35;2.55;;;;;;;9.30;65.38;102964.41;5072916;28;20028;-71
2022/03/17 10:49:30;;;;;;;11.50;2.10;;;;;;;9.24;65.19;102975.59;5072984;28;20059;-71
2022/03/17 10:51:56;;;;;;;1.92;1.35;;;;;;;9.19;65.80;102974.19;5072794;28;20110;-71
2022/03/17 10:54:24;;;;;;;10.68;2.72;;;;;;;9.16;66.75;102977.13;5072606;28;20088;-71
2022/03/17 10:57:06;;;;;;;7.95;2.42;;;;;;;9.18;65.59;102977.84;5072623;28;20060;-71
2022/03/17 10:59:44;;;;;;;;;;;;;;;9.27;66.68;102986.00;5073167;28;20043;-71
2022/03/17 11:02:12;;;;;;;4.70;1.15;;;;;;;9.27;65.40;102981.50;5072695;28;20006;-72
2022/03/17 11:04:39;;;;;;;6.55;1.88;;;;;;;9.30;65.05;102991.91;5072632;28;20410;-71
2022/03/17 11:07:07;;;;;;;9.07;3.10;;;;;;;9.41;64.76;103007.75;5072506;28;20387;-71
2022/03/17 11:09:36;;;;;;;6.25;2.75;;;;;;;9.43;64.70;103002.28;5072541;28;20025;-71
2022/03/17 11:12:02;;;;;;;6.15;1.80;;;;;;;9.48;64.96;103005.38;5072662;28;20836;-71
2022/03/17 11:14:29;;;;;;;11.13;3.03;;;;;;;9.51;65.70;103013.13;5072456;28;20029;-71
2022/03/17 11:16:56;;;;;;;8.00;1.98;;;;;;;9.61;63.89;103024.63;5071007;28;20028;-71
2022/03/17 11:19:22;;;;;;;5.65;1.70;;;;;;;9.65;64.03;103026.06;5071952;28;20032;-72
2022/03/17 11:22:00;;;;;;;4.32;1.40;;;;;;;9.71;64.55;103031.81;5067611;28;20044;-71
2022/03/17 11:24:26;;;;;;;9.35;2.00;;;;;;;9.77;64.35;103031.25;5067587;28;21052;-71
2022/03/17 11:27:13;;;;;;;7.75;1.60;;;;;;;9.78;62.74;103028.47;5067892;28;20068;-71
2022/03/17 11:29:40;;;;;;;10.32;2.40;;;;;;;9.84;63.95;103029.72;5067713;28;20029;-71
2022/03/17 11:32:08;;;;;;;4.25;1.73;;;;;;;9.97;63.17;103043.63;5067758;28;20040;-71
2022/03/17 11:34:42;;;;;;;5.80;1.63;;;;;;;10.08;62.61;103045.31;5067976;28;20032;-72
2022/03/17 11:37:27;;;;;;;5.78;2.22;;;;;;;10.15;63.02;103034.97;5067645;28;20039;-71
2022/03/17 11:40:03;;;;;;;2.67;1.55;;;;;;;10.15;62.07;103035.78;5067401;28;20017;-70